Terminal Aerodrome Forecast
Issued by NWS

Current Version | Previous Version | Text Only | Print | Product List | Glossary On
Versions: 1 2 3 4 5 6 7 8 9 10 11 12 13 14 15 16 17 18 19 20 21 22 23 24 25 26 27 28 29 30 31 32
286
FTUS43 KGLD 291121
TAFMCK
TAF
KMCK 291121Z 2912/3012 09009KT P6SM FEW090 SCT250
     FM291400 VRB05KT P6SM FEW080 SCT250
     FM292300 36013G23KT P6SM FEW110 SCT200
     FM300100 01011KT P6SM VCTS SCT090CB BKN200
     FM300500 01009KT P6SM SCT100 BKN150
     FM300900 VRB06KT P6SM FEW090 SCT110=

USA.gov is the U.S. government's official web portal to all federal, state and local government web resources and services.